Capt Carl — WDJ7540 — position and weather

sailwx.info

Track history (hours):
 
Tides and Currents Weather Stations Pressure Air Temp Water Temp Dewpoint Dewpoint Depression Visibility Wind Speed Wind Dir Waves Ship Positions

Capt Carl

Owner: Dean Equipment Inc, Harvey, LA. More information available from US FCC via Universal Licensing System and Coast Guard Vessel Documentation Center.

Last reported at 2017-Dec-29 20:43 UTC. Time now 2018-Feb-23 09:01 UTC.
Position N 29°34' W 090°33'.
Warning: this ship's position is 55 days out of date.

Length 26 m; draft 1.8 m.

Type: Towing. MMSI: 368007740.

Date/timePositionNaut miles runAvg speedWind from/ knotsBaromVisibWave heightAir tempDewpointWater temp
2017-Dec-29 20:43N 29°34' W 090°33'2 7.6
2017-Dec-29 20:30N 29°34' W 090°35'3 5.8
2017-Dec-29 20:00N 29°35' W 090°38'4 7.4
2017-Dec-29 19:30N 29°37' W 090°42'3 6.4
2017-Dec-29 19:00N 29°34' W 090°43'3 5.7
2017-Dec-29 18:30N 29°32' W 090°46'4 7.9
2017-Dec-29 18:00N 29°32' W 090°51'62 6.3
2017-Dec-29 08:04N 29°50' W 091°59'4 7.6
2017-Dec-29 07:36N 29°49' W 092°03'1 7.8
2017-Dec-29 07:30N 29°48' W 092°04'4 7.9
2017-Dec-29 07:00N 29°47' W 092°08'4 7.4
2017-Dec-29 06:30N 29°47' W 092°12'4 8.0
2017-Dec-29 06:00N 29°49' W 092°17'46 7.1
2017-Dec-28 23:26N 29°56' W 093°09'4 7.2
2017-Dec-28 22:52N 29°59' W 093°13'2 6.7
2017-Dec-28 22:30N 30°01' W 093°14'3 6.7
2017-Dec-28 22:00N 30°04' W 093°16'2 3.9
2017-Dec-28 21:30N 30°05' W 093°18'1 1.4
2017-Dec-28 21:00N 30°06' W 093°18'1 1.3
2017-Dec-28 20:30N 30°06' W 093°19'3 5.6
2017-Dec-28 20:00N 30°09' W 093°20'3 5.0
2017-Dec-28 19:30N 30°11' W 093°19'1 2.6
2017-Dec-28 19:00N 30°12' W 093°17'3 5.4
2017-Dec-28 18:30N 30°14' W 093°15'0 0.1
2017-Dec-28 18:00N 30°14' W 093°15'0 0.0
2017-Dec-28 17:30N 30°14' W 093°15'0 0.0
2017-Dec-28 17:00N 30°14' W 093°15'0 0.0
2017-Dec-28 16:30N 30°14' W 093°15'0 0.0
2017-Dec-28 16:00N 30°14' W 093°15'0 0.0
2017-Dec-28 15:30N 30°14' W 093°15'0 0.0
2017-Dec-28 15:00N 30°14' W 093°15'2 3.9
2017-Dec-28 14:30N 30°12' W 093°17'3 5.5
2017-Dec-28 14:00N 30°10' W 093°19'2 4.4
2017-Dec-28 13:30N 30°08' W 093°20'0 0.0
2017-Dec-28 13:00N 30°08' W 093°20'0 0.0
2017-Dec-28 12:30N 30°08' W 093°20'0 0.0
2017-Dec-28 12:00N 30°08' W 093°20'0 0.0
2017-Dec-28 11:30N 30°08' W 093°20'0 0.0
2017-Dec-28 11:00N 30°08' W 093°20'0 0.0
2017-Dec-28 10:30N 30°08' W 093°20'0 0.0
2017-Dec-28 10:00N 30°08' W 093°20'0 0.0
2017-Dec-28 09:30N 30°08' W 093°20'0 0.0
2017-Dec-28 09:00N 30°08' W 093°20'0 0.0
2017-Dec-28 08:30N 30°08' W 093°20'0 0.0
2017-Dec-28 08:00N 30°08' W 093°20'0 0.0
2017-Dec-28 07:30N 30°08' W 093°20'0 0.0
2017-Dec-28 07:00N 30°08' W 093°20'0 0.0
2017-Dec-28 06:30N 30°08' W 093°20'0 0.0
2017-Dec-28 06:00N 30°08' W 093°20'0 0.0
2017-Dec-28 05:30N 30°08' W 093°20'0 0.0
2017-Dec-28 05:00N 30°08' W 093°20'0 0.0
2017-Dec-28 04:30N 30°08' W 093°20'0 0.0
2017-Dec-28 04:00N 30°08' W 093°20'0 0.0
2017-Dec-28 03:30N 30°08' W 093°20'0 0.0
2017-Dec-28 03:00N 30°08' W 093°20'0 0.0
2017-Dec-28 02:30N 30°08' W 093°20'0 0.0
2017-Dec-28 02:00N 30°08' W 093°20'0 0.0
2017-Dec-28 01:30N 30°08' W 093°20'0 0.0
2017-Dec-28 01:00N 30°08' W 093°20'0 0.0
2017-Dec-28 00:30N 30°08' W 093°20'0 0.0
2017-Dec-28 00:00N 30°08' W 093°20'3 5.2
2017-Dec-27 23:30N 30°11' W 093°19'3 5.2
2017-Dec-27 23:00N 30°08' W 093°20'0 0.0
2017-Dec-27 22:30N 30°08' W 093°20'0 0.0
2017-Dec-27 22:00N 30°08' W 093°20'0 0.0
2017-Dec-27 21:30N 30°08' W 093°20'0 0.0
2017-Dec-27 21:00N 30°08' W 093°20'0 0.0
2017-Dec-27 20:30N 30°08' W 093°20'0 0.0
2017-Dec-27 20:00N 30°08' W 093°20'0 0.0
2017-Dec-27 19:30N 30°08' W 093°20'0 0.0
2017-Dec-27 19:00N 30°08' W 093°20'0 0.0
2017-Dec-27 18:30N 30°08' W 093°20'0 0.0
2017-Dec-27 18:00N 30°08' W 093°20'0 0.0
2017-Dec-27 17:30N 30°08' W 093°20'0 0.0
2017-Dec-27 17:00N 30°08' W 093°20'0 0.0
2017-Dec-27 16:30N 30°08' W 093°20'0 0.0
2017-Dec-27 16:00N 30°08' W 093°20'0 0.0
2017-Dec-27 15:30N 30°08' W 093°20'0 0.0
2017-Dec-27 15:00N 30°08' W 093°20'0 0.0
2017-Dec-27 14:30N 30°08' W 093°20'0 0.0
2017-Dec-27 14:00N 30°08' W 093°20'0 0.0
2017-Dec-27 13:30N 30°08' W 093°20'0 0.0
2017-Dec-27 13:00N 30°08' W 093°20'0 0.0
2017-Dec-27 12:30N 30°08' W 093°20'0 0.0
2017-Dec-27 12:00N 30°08' W 093°20'0 0.0
2017-Dec-27 11:30N 30°08' W 093°20'0 0.0
2017-Dec-27 11:00N 30°08' W 093°20'0 0.0
2017-Dec-27 10:30N 30°08' W 093°20'0 0.0
2017-Dec-27 10:00N 30°08' W 093°20'0 0.0
2017-Dec-27 09:30N 30°08' W 093°20'0 0.0
2017-Dec-27 09:00N 30°08' W 093°20'0 0.0
2017-Dec-27 08:30N 30°08' W 093°20'0 0.0
2017-Dec-27 08:00N 30°08' W 093°20'0 0.0
2017-Dec-27 07:30N 30°08' W 093°20'0 0.0
2017-Dec-27 07:00N 30°08' W 093°20'0 0.0
2017-Dec-27 06:30N 30°08' W 093°20'0 0.0
2017-Dec-27 06:00N 30°08' W 093°20'0 0.0
2017-Dec-27 05:30N 30°08' W 093°20'0 0.0
2017-Dec-27 05:00N 30°08' W 093°20'0 0.0
2017-Dec-27 04:30N 30°08' W 093°20'0 0.0
2017-Dec-27 04:00N 30°08' W 093°20'0 0.0
2017-Dec-27 03:30N 30°08' W 093°20'0 0.0
2017-Dec-27 03:00N 30°08' W 093°20'0 0.0
2017-Dec-27 02:30N 30°08' W 093°20'0 0.0
2017-Dec-27 02:00N 30°08' W 093°20'0 0.0
2017-Dec-27 01:30N 30°08' W 093°20'0 0.0
2017-Dec-27 01:00N 30°08' W 093°20'0 0.0
2017-Dec-27 00:30N 30°08' W 093°20'0 0.0
2017-Dec-27 00:00N 30°08' W 093°20'0 0.0
2017-Dec-26 23:30N 30°08' W 093°20'0 0.0
2017-Dec-26 23:00N 30°08' W 093°20'0 0.0
2017-Dec-26 22:30N 30°08' W 093°20'0 0.0
2017-Dec-26 22:00N 30°08' W 093°20'0 0.0
2017-Dec-26 21:30N 30°08' W 093°20'0 0.0
2017-Dec-26 21:00N 30°08' W 093°20'0 0.0
2017-Dec-26 20:30N 30°08' W 093°20'0 0.0
2017-Dec-26 20:00N 30°08' W 093°20'0 0.0
2017-Dec-26 19:30N 30°08' W 093°20'0 0.0
2017-Dec-26 19:00N 30°08' W 093°20'0 0.0
2017-Dec-26 18:30N 30°08' W 093°20'0 0.0
2017-Dec-26 18:00N 30°08' W 093°20'0 0.0
2017-Dec-26 17:30N 30°08' W 093°20'0 0.0
2017-Dec-26 17:00N 30°08' W 093°20'0 0.0
2017-Dec-26 16:30N 30°08' W 093°20'0 0.0
2017-Dec-26 16:00N 30°08' W 093°20'0 0.0
2017-Dec-26 15:30N 30°08' W 093°20'0 0.0
2017-Dec-26 15:00N 30°08' W 093°20'0 0.0
2017-Dec-26 14:30N 30°08' W 093°20'0 0.0
2017-Dec-26 14:00N 30°08' W 093°20'0 0.0
2017-Dec-26 13:30N 30°08' W 093°20'0 0.0
2017-Dec-26 13:00N 30°08' W 093°20'0 0.0
2017-Dec-26 12:30N 30°08' W 093°20'0 0.0
2017-Dec-26 12:00N 30°08' W 093°20'0 0.0
2017-Dec-26 11:30N 30°08' W 093°20'0 0.0
2017-Dec-26 11:00N 30°08' W 093°20'0 0.0
2017-Dec-26 10:30N 30°08' W 093°20'0 0.0
2017-Dec-26 10:00N 30°08' W 093°20'0 0.0
2017-Dec-26 09:30N 30°08' W 093°20'0 0.0
2017-Dec-26 09:00N 30°08' W 093°20'0 0.0
2017-Dec-26 08:30N 30°08' W 093°20'0 0.0
2017-Dec-26 08:00N 30°08' W 093°20'0 0.0
2017-Dec-26 07:30N 30°08' W 093°20'0 0.0
2017-Dec-26 07:00N 30°08' W 093°20'0 0.0
2017-Dec-26 06:30N 30°08' W 093°20'0 0.0
2017-Dec-26 06:00N 30°08' W 093°20'0 0.0
2017-Dec-26 05:30N 30°08' W 093°20'0 0.0
2017-Dec-26 05:00N 30°08' W 093°20'0 0.0
2017-Dec-26 04:30N 30°08' W 093°20'0 0.0
2017-Dec-26 04:00N 30°08' W 093°20'0 0.0
2017-Dec-26 03:30N 30°08' W 093°20'0 0.0
2017-Dec-26 03:00N 30°08' W 093°20'0 0.0
2017-Dec-26 02:30N 30°08' W 093°20'0 0.0
2017-Dec-26 02:00N 30°08' W 093°20'0 0.0
2017-Dec-26 01:30N 30°08' W 093°20'0 0.0
2017-Dec-26 01:00N 30°08' W 093°20'0 0.0
2017-Dec-26 00:30N 30°08' W 093°20'0 0.0
2017-Dec-26 00:00N 30°08' W 093°20'0 0.0
2017-Dec-25 23:30N 30°08' W 093°20'0 0.0
2017-Dec-25 23:00N 30°08' W 093°20'0 0.0
2017-Dec-25 22:30N 30°08' W 093°20'0 0.0
2017-Dec-25 22:00N 30°08' W 093°20'0 0.0
2017-Dec-25 21:30N 30°08' W 093°20'0 0.0
2017-Dec-25 21:00N 30°08' W 093°20'0 0.0
2017-Dec-25 20:30N 30°08' W 093°20'0 0.0
2017-Dec-25 20:00N 30°08' W 093°20'0 0.0
2017-Dec-25 19:30N 30°08' W 093°20'0 0.0
2017-Dec-25 19:00N 30°08' W 093°20'0 0.0
2017-Dec-25 18:30N 30°08' W 093°20'0 0.0
2017-Dec-25 18:00N 30°08' W 093°20'0 0.0
2017-Dec-25 17:30N 30°08' W 093°20'0 0.0
2017-Dec-25 17:00N 30°08' W 093°20'0 0.0
2017-Dec-25 16:30N 30°08' W 093°20'0 0.0
2017-Dec-25 16:00N 30°08' W 093°20'0 0.0
2017-Dec-25 15:30N 30°08' W 093°20'0 0.0
2017-Dec-25 15:00N 30°08' W 093°20'0 0.0
2017-Dec-25 14:30N 30°08' W 093°20'0 0.0
2017-Dec-25 14:00N 30°08' W 093°20'0 0.0
2017-Dec-25 13:30N 30°08' W 093°20'0 0.0
2017-Dec-25 13:00N 30°08' W 093°20'0 0.0
2017-Dec-25 12:30N 30°08' W 093°20'0 0.0
2017-Dec-25 12:00N 30°08' W 093°20'0 0.0
2017-Dec-25 11:30N 30°08' W 093°20'0 0.0
2017-Dec-25 11:00N 30°08' W 093°20'0 0.0
2017-Dec-25 10:30N 30°08' W 093°20'0 0.0
2017-Dec-25 10:00N 30°08' W 093°20'0 0.0
2017-Dec-25 09:30N 30°08' W 093°20'0 0.0
2017-Dec-25 09:00N 30°08' W 093°20'0 0.0
2017-Dec-25 08:30N 30°08' W 093°20'0 0.0
2017-Dec-25 08:00N 30°08' W 093°20'0 0.0
2017-Dec-25 07:30N 30°08' W 093°20'0 0.0
2017-Dec-25 07:00N 30°08' W 093°20'0 0.0
2017-Dec-25 06:30N 30°08' W 093°20'0 0.0
2017-Dec-25 06:00N 30°08' W 093°20'0 0.0
2017-Dec-25 05:30N 30°08' W 093°20'0 0.0
2017-Dec-25 05:00N 30°08' W 093°20'0 0.0
2017-Dec-25 04:30N 30°08' W 093°20'0 0.0
2017-Dec-25 04:00N 30°08' W 093°20'0 0.0
2017-Dec-25 03:30N 30°08' W 093°20'0 0.0
2017-Dec-25 03:00N 30°08' W 093°20'0 0.0
2017-Dec-25 02:30N 30°08' W 093°20'0 0.0
2017-Dec-25 02:00N 30°08' W 093°20'0 0.0
2017-Dec-25 01:30N 30°08' W 093°20'0 0.0
2017-Dec-25 01:00N 30°08' W 093°20'0 0.0
2017-Dec-25 00:30N 30°08' W 093°20'0 0.0
2017-Dec-25 00:00N 30°08' W 093°20'0 0.0
2017-Dec-24 23:30N 30°08' W 093°20'0 0.0
2017-Dec-24 23:00N 30°08' W 093°20'0 0.0
2017-Dec-24 22:30N 30°08' W 093°20'0 0.0
2017-Dec-24 22:00N 30°08' W 093°20'0 0.0
2017-Dec-24 21:30N 30°08' W 093°20'0 0.0
2017-Dec-24 21:00N 30°08' W 093°20'0 0.0
2017-Dec-24 20:30N 30°08' W 093°20'0 0.0
2017-Dec-24 20:00N 30°08' W 093°20'0 0.0
2017-Dec-24 19:30N 30°08' W 093°20'0 0.0
2017-Dec-24 19:00N 30°08' W 093°20'0 0.0
2017-Dec-24 18:30N 30°08' W 093°20'0 0.0
2017-Dec-24 18:00N 30°08' W 093°20'0 0.0
2017-Dec-24 17:30N 30°08' W 093°20'0 0.0
2017-Dec-24 17:00N 30°08' W 093°20'0 0.0
2017-Dec-24 16:30N 30°08' W 093°20'0 0.0
2017-Dec-24 16:00N 30°08' W 093°20'0 0.0
2017-Dec-24 15:30N 30°08' W 093°20'0 0.0
2017-Dec-24 15:00N 30°08' W 093°20'0 0.0
2017-Dec-24 14:30N 30°08' W 093°20'0 0.0
2017-Dec-24 14:00N 30°08' W 093°20'0 0.0
2017-Dec-24 13:30N 30°08' W 093°20'0 0.0
2017-Dec-24 13:00N 30°08' W 093°20'0 0.0
2017-Dec-24 12:30N 30°08' W 093°20'0 0.0
2017-Dec-24 12:00N 30°08' W 093°20'0 0.0
2017-Dec-24 11:30N 30°08' W 093°20'0 0.0
2017-Dec-24 11:00N 30°08' W 093°20'0 0.0
2017-Dec-24 10:30N 30°08' W 093°20'0 0.0
2017-Dec-24 10:00N 30°08' W 093°20'0 0.0
2017-Dec-24 09:30N 30°08' W 093°20'0 0.0
2017-Dec-24 09:00N 30°08' W 093°20'0 0.0
2017-Dec-24 08:30N 30°08' W 093°20'0 0.0
2017-Dec-24 08:00N 30°08' W 093°20'0 0.0
2017-Dec-24 07:30N 30°08' W 093°20'0 0.0
2017-Dec-24 07:00N 30°08' W 093°20'0 0.0
2017-Dec-24 06:30N 30°08' W 093°20'0 0.0
2017-Dec-24 06:00N 30°08' W 093°20'0 0.0
2017-Dec-24 05:30N 30°08' W 093°20'0 0.0
2017-Dec-24 05:00N 30°08' W 093°20'0 0.0
2017-Dec-24 04:30N 30°08' W 093°20'0 0.0
2017-Dec-24 04:00N 30°08' W 093°20'0 0.0
2017-Dec-24 03:30N 30°08' W 093°20'0 0.0
2017-Dec-24 03:00N 30°08' W 093°20'0 0.0
2017-Dec-24 02:30N 30°08' W 093°20'0 0.0
2017-Dec-24 02:00N 30°08' W 093°20'0 0.0
2017-Dec-24 01:30N 30°08' W 093°20'0 0.0
2017-Dec-24 01:00N 30°08' W 093°20'0 0.0
2017-Dec-24 00:30N 30°08' W 093°20'0 0.0
2017-Dec-24 00:00N 30°08' W 093°20'0 0.0
2017-Dec-23 23:30N 30°08' W 093°20'0 0.0
2017-Dec-23 23:00N 30°08' W 093°20'0 0.0
2017-Dec-23 22:30N 30°08' W 093°20'0 0.0
2017-Dec-23 22:00N 30°08' W 093°20'0 0.0
2017-Dec-23 21:30N 30°08' W 093°20'0 0.0
2017-Dec-23 21:00N 30°08' W 093°20'0 0.0
2017-Dec-23 20:30N 30°08' W 093°20'0 0.0
2017-Dec-23 20:00N 30°08' W 093°20'0 0.0
2017-Dec-23 19:30N 30°08' W 093°20'0 0.0
2017-Dec-23 19:00N 30°08' W 093°20'0 0.0
2017-Dec-23 18:30N 30°08' W 093°20'0 0.0
2017-Dec-23 18:00N 30°08' W 093°20'0 0.0
2017-Dec-23 17:30N 30°08' W 093°20'0 0.0
2017-Dec-23 17:00N 30°08' W 093°20'0 0.0
2017-Dec-23 16:30N 30°08' W 093°20'0 0.0
2017-Dec-23 16:00N 30°08' W 093°20'0 0.0
2017-Dec-23 15:30N 30°08' W 093°20'0 0.0
2017-Dec-23 15:00N 30°08' W 093°20'0 0.0
2017-Dec-23 14:30N 30°08' W 093°20'0 0.0
2017-Dec-23 14:00N 30°08' W 093°20'0 0.0
2017-Dec-23 13:30N 30°08' W 093°20'0 0.0
2017-Dec-23 13:00N 30°08' W 093°20'0 0.0
2017-Dec-23 12:30N 30°08' W 093°20'0 0.0
2017-Dec-23 12:00N 30°08' W 093°20'0 0.0
2017-Dec-23 11:30N 30°08' W 093°20'0 0.0
2017-Dec-23 11:00N 30°08' W 093°20'0 0.0
2017-Dec-23 10:30N 30°08' W 093°20'0 0.0
2017-Dec-23 10:00N 30°08' W 093°20'0 0.0
2017-Dec-23 09:30N 30°08' W 093°20'0 0.0
2017-Dec-23 09:00N 30°08' W 093°20'0 0.0
2017-Dec-23 08:30N 30°08' W 093°20'0 0.0
2017-Dec-23 08:00N 30°08' W 093°20'0 0.0
2017-Dec-23 07:30N 30°08' W 093°20'0 0.0
2017-Dec-23 07:00N 30°08' W 093°20'0 0.0
2017-Dec-23 06:30N 30°08' W 093°20'0 0.0
2017-Dec-23 06:00N 30°08' W 093°20'0 0.0
2017-Dec-23 05:30N 30°08' W 093°20'0 0.0
2017-Dec-23 05:00N 30°08' W 093°20'0 0.0
2017-Dec-23 04:30N 30°08' W 093°20'0 0.0
2017-Dec-23 04:00N 30°08' W 093°20'0 0.0
2017-Dec-23 03:30N 30°08' W 093°20'0 0.0
2017-Dec-23 03:00N 30°08' W 093°20'0 0.0
2017-Dec-23 02:30N 30°08' W 093°20'0 0.0
2017-Dec-23 02:00N 30°08' W 093°20'0 0.0
2017-Dec-23 01:30N 30°08' W 093°20'0 0.0
2017-Dec-23 01:00N 30°08' W 093°20'0 0.0
2017-Dec-23 00:30N 30°08' W 093°20'0 0.0
2017-Dec-23 00:00N 30°08' W 093°20'0 0.0
2017-Dec-22 23:30N 30°08' W 093°20'0 0.0
2017-Dec-22 23:00N 30°08' W 093°20'0 0.0
2017-Dec-22 22:30N 30°08' W 093°20'0 0.0
2017-Dec-22 22:00N 30°08' W 093°20'0 0.0
2017-Dec-22 21:30N 30°08' W 093°20'0 0.0
2017-Dec-22 21:00N 30°08' W 093°20'0 0.0
2017-Dec-22 20:30N 30°08' W 093°20'0 0.0
2017-Dec-22 20:00N 30°08' W 093°20'0 0.0
2017-Dec-22 19:30N 30°08' W 093°20'0 0.0
2017-Dec-22 19:00N 30°08' W 093°20'0 0.0
2017-Dec-22 18:30N 30°08' W 093°20'0 0.0
2017-Dec-22 18:00N 30°08' W 093°20'0 0.0
2017-Dec-22 17:30N 30°08' W 093°20'0 0.0
2017-Dec-22 17:00N 30°08' W 093°20'0 0.0
2017-Dec-22 16:30N 30°08' W 093°20'3 5.1
2017-Dec-22 16:00N 30°06' W 093°20'1 2.4
2017-Dec-22 15:30N 30°06' W 093°18'2 3.0
2017-Dec-22 15:00N 30°07' W 093°20'2 3.4
2017-Dec-22 14:30N 30°08' W 093°20'0 0.0
2017-Dec-22 14:00N 30°08' W 093°20'0 0.0
2017-Dec-22 13:30N 30°08' W 093°20'0 0.0
2017-Dec-22 13:00N 30°08' W 093°20'0 0.0
2017-Dec-22 12:30N 30°08' W 093°20'0 0.0
2017-Dec-22 12:00N 30°08' W 093°20'0 0.0
2017-Dec-22 11:30N 30°08' W 093°20'0 0.0
2017-Dec-22 11:00N 30°08' W 093°20'0 0.0
2017-Dec-22 10:30N 30°08' W 093°20'0 0.0
2017-Dec-22 10:00N 30°08' W 093°20'0 0.0
2017-Dec-22 09:30N 30°08' W 093°20'0 0.0
2017-Dec-22 09:00N 30°08' W 093°20'0 0.0
2017-Dec-22 08:30N 30°08' W 093°20'0 0.0
2017-Dec-22 08:00N 30°08' W 093°20'0 0.0
2017-Dec-22 07:30N 30°08' W 093°20'0 0.0
2017-Dec-22 07:00N 30°08' W 093°20'0 0.0
2017-Dec-22 06:30N 30°08' W 093°20'0 0.0
2017-Dec-22 06:00N 30°08' W 093°20'0 0.0
2017-Dec-22 05:30N 30°08' W 093°20'0 0.0
2017-Dec-22 05:00N 30°08' W 093°20'0 0.0
2017-Dec-22 04:30N 30°08' W 093°20'0 0.0
2017-Dec-22 04:00N 30°08' W 093°20'0 0.0
2017-Dec-22 03:30N 30°08' W 093°20'0 0.0
2017-Dec-22 03:00N 30°08' W 093°20'0 0.0
2017-Dec-22 02:30N 30°08' W 093°20'0 0.0
2017-Dec-22 02:00N 30°08' W 093°20'0 0.0
2017-Dec-22 01:30N 30°08' W 093°20'0 0.0
2017-Dec-22 01:00N 30°08' W 093°20'0 0.0
2017-Dec-22 00:30N 30°08' W 093°20'0 0.0
2017-Dec-22 00:00N 30°08' W 093°20'0 0.0
2017-Dec-21 23:30N 30°08' W 093°20'0 0.0
2017-Dec-21 23:00N 30°08' W 093°20'0 0.0
2017-Dec-21 22:30N 30°08' W 093°20'0 0.0
2017-Dec-21 22:00N 30°08' W 093°20'0 0.0
2017-Dec-21 21:30N 30°08' W 093°20'0 0.0
2017-Dec-21 21:00N 30°08' W 093°20'0 0.0
2017-Dec-21 20:30N 30°08' W 093°20'0 0.0
2017-Dec-21 20:00N 30°08' W 093°20'0 0.0
2017-Dec-21 19:30N 30°08' W 093°20'0 0.3
2017-Dec-21 19:00N 30°08' W 093°20'3 5.3
2017-Dec-21 18:30N 30°11' W 093°19'2 3.6
2017-Dec-21 18:00N 30°09' W 093°20'1 2.1
2017-Dec-21 17:30N 30°08' W 093°20'0 0.0
2017-Dec-21 17:00N 30°08' W 093°20'1 1.4
2017-Dec-21 16:30N 30°09' W 093°20'2 4.3
2017-Dec-21 16:00N 30°11' W 093°19'0 0.0
2017-Dec-21 15:30N 30°11' W 093°19'0 0.0
2017-Dec-21 15:00N 30°11' W 093°19'0 0.0
2017-Dec-21 14:30N 30°11' W 093°19'0 0.0
2017-Dec-21 13:59N 30°11' W 093°19'0 0.0
2017-Dec-21 13:29N 30°11' W 093°19'0 0.0
2017-Dec-21 12:58N 30°11' W 093°19'0 0.0
2017-Dec-21 12:30N 30°11' W 093°19'0 0.0
2017-Dec-21 12:00N 30°11' W 093°19'0 0.0
2017-Dec-21 11:30N 30°11' W 093°19'0 0.0
2017-Dec-21 10:59N 30°11' W 093°19'0 0.0
2017-Dec-21 10:25N 30°11' W 093°19'0 0.0
2017-Dec-21 09:59N 30°11' W 093°19'0 0.0
2017-Dec-21 09:21N 30°11' W 093°19'0 0.0
2017-Dec-21 08:57N 30°11' W 093°19'0 0.0
2017-Dec-21 08:27N 30°11' W 093°19'0 0.0
2017-Dec-21 08:00N 30°11' W 093°19'0 0.0
2017-Dec-21 07:30N 30°11' W 093°19'0 0.0
2017-Dec-21 07:00N 30°11' W 093°19'0 0.0
2017-Dec-21 06:29N 30°11' W 093°19'0 0.0
2017-Dec-21 06:00N 30°11' W 093°19'0 0.0
2017-Dec-21 05:30N 30°11' W 093°19'0 0.0
2017-Dec-21 05:00N 30°11' W 093°19'0 0.0
2017-Dec-21 04:30N 30°11' W 093°19'0 0.0
2017-Dec-21 04:00N 30°11' W 093°19'0 0.0
2017-Dec-21 03:30N 30°11' W 093°19'0 0.0
2017-Dec-21 03:00N 30°11' W 093°19'0 0.0
2017-Dec-21 02:30N 30°11' W 093°19'0 0.0
2017-Dec-21 02:00N 30°11' W 093°19'0 0.0
2017-Dec-21 01:30N 30°11' W 093°19'0 0.0
2017-Dec-21 01:00N 30°11' W 093°19'0 0.0
2017-Dec-21 00:30N 30°11' W 093°19'0 0.0
2017-Dec-21 00:00N 30°11' W 093°19'0 0.0
2017-Dec-20 23:30N 30°11' W 093°19'0 0.0
2017-Dec-20 23:00N 30°11' W 093°19'0 0.0
2017-Dec-20 22:30N 30°11' W 093°19'0 0.0
2017-Dec-20 22:00N 30°11' W 093°19'0 0.0
2017-Dec-20 21:30N 30°11' W 093°19'0 0.0
2017-Dec-20 21:00N 30°11' W 093°19'0 0.0
2017-Dec-20 20:30N 30°11' W 093°19'0 0.0
2017-Dec-20 20:00N 30°11' W 093°19'0 0.0
2017-Dec-20 19:30N 30°11' W 093°19'0 0.0
2017-Dec-20 19:00N 30°11' W 093°19'0 0.0
2017-Dec-20 18:30N 30°11' W 093°19'0 0.9
2017-Dec-20 18:00N 30°11' W 093°19'2 4.8
2017-Dec-20 17:30N 30°08' W 093°20'2 3.8
2017-Dec-20 17:00N 30°10' W 093°19'0 0.2
2017-Dec-20 16:30N 30°10' W 093°19'2 4.0
2017-Dec-20 16:00N 30°08' W 093°20'3 5.3
2017-Dec-20 15:30N 30°11' W 093°19'1 2.4
2017-Dec-20 15:00N 30°10' W 093°19'1 2.9
2017-Dec-20 14:30N 30°08' W 093°20'0 0.0
2017-Dec-20 14:00N 30°08' W 093°20'0 0.0
2017-Dec-20 13:30N 30°08' W 093°20'2 3.7
2017-Dec-20 13:00N 30°10' W 093°19'1 1.9
2017-Dec-20 12:30N 30°11' W 093°19'0 0.0
2017-Dec-20 12:00N 30°11' W 093°19'0 0.0
2017-Dec-20 11:30N 30°11' W 093°19'0 0.0
2017-Dec-20 11:00N 30°11' W 093°19'0 0.0
2017-Dec-20 10:30N 30°11' W 093°19'0 0.0
2017-Dec-20 10:00N 30°11' W 093°19'0 0.0
2017-Dec-20 09:30N 30°11' W 093°19'0 0.0
2017-Dec-20 09:00N 30°11' W 093°19'0 0.0
2017-Dec-20 08:30N 30°11' W 093°19'0 0.0
2017-Dec-20 08:00N 30°11' W 093°19'0 0.0
2017-Dec-20 07:30N 30°11' W 093°19'0 0.0
2017-Dec-20 07:00N 30°11' W 093°19'0 0.0
2017-Dec-20 06:30N 30°11' W 093°19'0 0.0
2017-Dec-20 06:00N 30°11' W 093°19'0 0.0
2017-Dec-20 05:30N 30°11' W 093°19'0 0.0
2017-Dec-20 05:00N 30°11' W 093°19'0 0.0
2017-Dec-20 04:30N 30°11' W 093°19'0 0.0
2017-Dec-20 04:00N 30°11' W 093°19'0 0.0
2017-Dec-20 03:30N 30°11' W 093°19'0 0.0
2017-Dec-20 03:00N 30°11' W 093°19'0 0.0
2017-Dec-20 02:30N 30°11' W 093°19'0 0.0
2017-Dec-20 02:00N 30°11' W 093°19'0 0.0
2017-Dec-20 01:30N 30°11' W 093°19'0 0.0
2017-Dec-20 01:00N 30°11' W 093°19'0 0.0
2017-Dec-20 00:30N 30°11' W 093°19'0 0.0
2017-Dec-20 00:00N 30°11' W 093°19'0 0.0
2017-Dec-19 23:30N 30°11' W 093°19'0 0.0
2017-Dec-19 23:00N 30°11' W 093°19'0 0.0
2017-Dec-19 22:30N 30°11' W 093°19'0 0.0
2017-Dec-19 22:00N 30°11' W 093°19'0 0.0
2017-Dec-19 21:30N 30°11' W 093°19'0 0.0
2017-Dec-19 21:00N 30°11' W 093°19'  
Track history (hours):
 
Tides and Currents Weather Stations Pressure Air Temp Water Temp Dewpoint Dewpoint Depression Visibility Wind Speed Wind Dir Waves Ship Positions

Capt Carl

Owner: Dean Equipment Inc, Harvey, LA. More information available from US FCC via Universal Licensing System and Coast Guard Vessel Documentation Center.

Last reported at 2017-Dec-29 20:43 UTC. Time now 2018-Feb-23 09:01 UTC.
Position N 29°34' W 090°33'.
Warning: this ship's position is 55 days out of date.

Length 26 m; draft 1.8 m.

Type: Towing. MMSI: 368007740.

Date/timePositionNaut miles runAvg speedWind from/ knotsBaromVisibWave heightAir tempDewpointWater temp
2017-Dec-29 20:43N 29°34' W 090°33'2 7.6
2017-Dec-29 20:30N 29°34' W 090°35'3 5.8
2017-Dec-29 20:00N 29°35' W 090°38'4 7.4
2017-Dec-29 19:30N 29°37' W 090°42'3 6.4
2017-Dec-29 19:00N 29°34' W 090°43'3 5.7
2017-Dec-29 18:30N 29°32' W 090°46'4 7.9
2017-Dec-29 18:00N 29°32' W 090°51'62 6.3
2017-Dec-29 08:04N 29°50' W 091°59'4 7.6
2017-Dec-29 07:36N 29°49' W 092°03'1 7.8
2017-Dec-29 07:30N 29°48' W 092°04'4 7.9
2017-Dec-29 07:00N 29°47' W 092°08'4 7.4
2017-Dec-29 06:30N 29°47' W 092°12'4 8.0
2017-Dec-29 06:00N 29°49' W 092°17'46 7.1
2017-Dec-28 23:26N 29°56' W 093°09'4 7.2
2017-Dec-28 22:52N 29°59' W 093°13'2 6.7
2017-Dec-28 22:30N 30°01' W 093°14'3 6.7
2017-Dec-28 22:00N 30°04' W 093°16'2 3.9
2017-Dec-28 21:30N 30°05' W 093°18'1 1.4
2017-Dec-28 21:00N 30°06' W 093°18'1 1.3
2017-Dec-28 20:30N 30°06' W 093°19'3 5.6
2017-Dec-28 20:00N 30°09' W 093°20'3 5.0
2017-Dec-28 19:30N 30°11' W 093°19'1 2.6
2017-Dec-28 19:00N 30°12' W 093°17'3 5.4
2017-Dec-28 18:30N 30°14' W 093°15'0 0.1
2017-Dec-28 18:00N 30°14' W 093°15'0 0.0
2017-Dec-28 17:30N 30°14' W 093°15'0 0.0
2017-Dec-28 17:00N 30°14' W 093°15'0 0.0
2017-Dec-28 16:30N 30°14' W 093°15'0 0.0
2017-Dec-28 16:00N 30°14' W 093°15'0 0.0
2017-Dec-28 15:30N 30°14' W 093°15'0 0.0
2017-Dec-28 15:00N 30°14' W 093°15'2 3.9
2017-Dec-28 14:30N 30°12' W 093°17'3 5.5
2017-Dec-28 14:00N 30°10' W 093°19'2 4.4
2017-Dec-28 13:30N 30°08' W 093°20'0 0.0
2017-Dec-28 13:00N 30°08' W 093°20'0 0.0
2017-Dec-28 12:30N 30°08' W 093°20'0 0.0
2017-Dec-28 12:00N 30°08' W 093°20'0 0.0
2017-Dec-28 11:30N 30°08' W 093°20'0 0.0
2017-Dec-28 11:00N 30°08' W 093°20'0 0.0
2017-Dec-28 10:30N 30°08' W 093°20'0 0.0
2017-Dec-28 10:00N 30°08' W 093°20'0 0.0
2017-Dec-28 09:30N 30°08' W 093°20'0 0.0
2017-Dec-28 09:00N 30°08' W 093°20'0 0.0
2017-Dec-28 08:30N 30°08' W 093°20'0 0.0
2017-Dec-28 08:00N 30°08' W 093°20'0 0.0
2017-Dec-28 07:30N 30°08' W 093°20'0 0.0
2017-Dec-28 07:00N 30°08' W 093°20'0 0.0
2017-Dec-28 06:30N 30°08' W 093°20'0 0.0
2017-Dec-28 06:00N 30°08' W 093°20'0 0.0
2017-Dec-28 05:30N 30°08' W 093°20'0 0.0
2017-Dec-28 05:00N 30°08' W 093°20'0 0.0
2017-Dec-28 04:30N 30°08' W 093°20'0 0.0
2017-Dec-28 04:00N 30°08' W 093°20'0 0.0
2017-Dec-28 03:30N 30°08' W 093°20'0 0.0
2017-Dec-28 03:00N 30°08' W 093°20'0 0.0
2017-Dec-28 02:30N 30°08' W 093°20'0 0.0
2017-Dec-28 02:00N 30°08' W 093°20'0 0.0
2017-Dec-28 01:30N 30°08' W 093°20'0 0.0
2017-Dec-28 01:00N 30°08' W 093°20'0 0.0
2017-Dec-28 00:30N 30°08' W 093°20'0 0.0
2017-Dec-28 00:00N 30°08' W 093°20'3 5.2
2017-Dec-27 23:30N 30°11' W 093°19'3 5.2
2017-Dec-27 23:00N 30°08' W 093°20'0 0.0
2017-Dec-27 22:30N 30°08' W 093°20'0 0.0
2017-Dec-27 22:00N 30°08' W 093°20'0 0.0
2017-Dec-27 21:30N 30°08' W 093°20'0 0.0
2017-Dec-27 21:00N 30°08' W 093°20'0 0.0
2017-Dec-27 20:30N 30°08' W 093°20'0 0.0
2017-Dec-27 20:00N 30°08' W 093°20'0 0.0
2017-Dec-27 19:30N 30°08' W 093°20'0 0.0
2017-Dec-27 19:00N 30°08' W 093°20'0 0.0
2017-Dec-27 18:30N 30°08' W 093°20'0 0.0
2017-Dec-27 18:00N 30°08' W 093°20'0 0.0
2017-Dec-27 17:30N 30°08' W 093°20'0 0.0
2017-Dec-27 17:00N 30°08' W 093°20'0 0.0
2017-Dec-27 16:30N 30°08' W 093°20'0 0.0
2017-Dec-27 16:00N 30°08' W 093°20'0 0.0
2017-Dec-27 15:30N 30°08' W 093°20'0 0.0
2017-Dec-27 15:00N 30°08' W 093°20'0 0.0
2017-Dec-27 14:30N 30°08' W 093°20'0 0.0
2017-Dec-27 14:00N 30°08' W 093°20'0 0.0
2017-Dec-27 13:30N 30°08' W 093°20'0 0.0
2017-Dec-27 13:00N 30°08' W 093°20'0 0.0
2017-Dec-27 12:30N 30°08' W 093°20'0 0.0
2017-Dec-27 12:00N 30°08' W 093°20'0 0.0
2017-Dec-27 11:30N 30°08' W 093°20'0 0.0
2017-Dec-27 11:00N 30°08' W 093°20'0 0.0
2017-Dec-27 10:30N 30°08' W 093°20'0 0.0
2017-Dec-27 10:00N 30°08' W 093°20'0 0.0
2017-Dec-27 09:30N 30°08' W 093°20'0 0.0
2017-Dec-27 09:00N 30°08' W 093°20'0 0.0
2017-Dec-27 08:30N 30°08' W 093°20'0 0.0
2017-Dec-27 08:00N 30°08' W 093°20'0 0.0
2017-Dec-27 07:30N 30°08' W 093°20'0 0.0
2017-Dec-27 07:00N 30°08' W 093°20'0 0.0
2017-Dec-27 06:30N 30°08' W 093°20'0 0.0
2017-Dec-27 06:00N 30°08' W 093°20'0 0.0
2017-Dec-27 05:30N 30°08' W 093°20'0 0.0
2017-Dec-27 05:00N 30°08' W 093°20'0 0.0
2017-Dec-27 04:30N 30°08' W 093°20'0 0.0
2017-Dec-27 04:00N 30°08' W 093°20'0 0.0
2017-Dec-27 03:30N 30°08' W 093°20'0 0.0
2017-Dec-27 03:00N 30°08' W 093°20'0 0.0
2017-Dec-27 02:30N 30°08' W 093°20'0 0.0
2017-Dec-27 02:00N 30°08' W 093°20'0 0.0
2017-Dec-27 01:30N 30°08' W 093°20'0 0.0
2017-Dec-27 01:00N 30°08' W 093°20'0 0.0
2017-Dec-27 00:30N 30°08' W 093°20'0 0.0
2017-Dec-27 00:00N 30°08' W 093°20'0 0.0
2017-Dec-26 23:30N 30°08' W 093°20'0 0.0
2017-Dec-26 23:00N 30°08' W 093°20'0 0.0
2017-Dec-26 22:30N 30°08' W 093°20'0 0.0
2017-Dec-26 22:00N 30°08' W 093°20'0 0.0
2017-Dec-26 21:30N 30°08' W 093°20'0 0.0
2017-Dec-26 21:00N 30°08' W 093°20'0 0.0
2017-Dec-26 20:30N 30°08' W 093°20'0 0.0
2017-Dec-26 20:00N 30°08' W 093°20'0 0.0
2017-Dec-26 19:30N 30°08' W 093°20'0 0.0
2017-Dec-26 19:00N 30°08' W 093°20'0 0.0
2017-Dec-26 18:30N 30°08' W 093°20'0 0.0
2017-Dec-26 18:00N 30°08' W 093°20'0 0.0
2017-Dec-26 17:30N 30°08' W 093°20'0 0.0
2017-Dec-26 17:00N 30°08' W 093°20'0 0.0
2017-Dec-26 16:30N 30°08' W 093°20'0 0.0
2017-Dec-26 16:00N 30°08' W 093°20'0 0.0
2017-Dec-26 15:30N 30°08' W 093°20'0 0.0
2017-Dec-26 15:00N 30°08' W 093°20'0 0.0
2017-Dec-26 14:30N 30°08' W 093°20'0 0.0
2017-Dec-26 14:00N 30°08' W 093°20'0 0.0
2017-Dec-26 13:30N 30°08' W 093°20'0 0.0
2017-Dec-26 13:00N 30°08' W 093°20'0 0.0
2017-Dec-26 12:30N 30°08' W 093°20'0 0.0
2017-Dec-26 12:00N 30°08' W 093°20'0 0.0
2017-Dec-26 11:30N 30°08' W 093°20'0 0.0
2017-Dec-26 11:00N 30°08' W 093°20'0 0.0
2017-Dec-26 10:30N 30°08' W 093°20'0 0.0
2017-Dec-26 10:00N 30°08' W 093°20'0 0.0
2017-Dec-26 09:30N 30°08' W 093°20'0 0.0
2017-Dec-26 09:00N 30°08' W 093°20'0 0.0
2017-Dec-26 08:30N 30°08' W 093°20'0 0.0
2017-Dec-26 08:00N 30°08' W 093°20'0 0.0
2017-Dec-26 07:30N 30°08' W 093°20'0 0.0
2017-Dec-26 07:00N 30°08' W 093°20'0 0.0
2017-Dec-26 06:30N 30°08' W 093°20'0 0.0
2017-Dec-26 06:00N 30°08' W 093°20'0 0.0
2017-Dec-26 05:30N 30°08' W 093°20'0 0.0
2017-Dec-26 05:00N 30°08' W 093°20'0 0.0
2017-Dec-26 04:30N 30°08' W 093°20'0 0.0
2017-Dec-26 04:00N 30°08' W 093°20'0 0.0
2017-Dec-26 03:30N 30°08' W 093°20'0 0.0
2017-Dec-26 03:00N 30°08' W 093°20'0 0.0
2017-Dec-26 02:30N 30°08' W 093°20'0 0.0
2017-Dec-26 02:00N 30°08' W 093°20'0 0.0
2017-Dec-26 01:30N 30°08' W 093°20'0 0.0
2017-Dec-26 01:00N 30°08' W 093°20'0 0.0
2017-Dec-26 00:30N 30°08' W 093°20'0 0.0
2017-Dec-26 00:00N 30°08' W 093°20'0 0.0
2017-Dec-25 23:30N 30°08' W 093°20'0 0.0
2017-Dec-25 23:00N 30°08' W 093°20'0 0.0
2017-Dec-25 22:30N 30°08' W 093°20'0 0.0
2017-Dec-25 22:00N 30°08' W 093°20'0 0.0
2017-Dec-25 21:30N 30°08' W 093°20'0 0.0
2017-Dec-25 21:00N 30°08' W 093°20'0 0.0
2017-Dec-25 20:30N 30°08' W 093°20'0 0.0
2017-Dec-25 20:00N 30°08' W 093°20'0 0.0
2017-Dec-25 19:30N 30°08' W 093°20'0 0.0
2017-Dec-25 19:00N 30°08' W 093°20'0 0.0
2017-Dec-25 18:30N 30°08' W 093°20'0 0.0
2017-Dec-25 18:00N 30°08' W 093°20'0 0.0
2017-Dec-25 17:30N 30°08' W 093°20'0 0.0
2017-Dec-25 17:00N 30°08' W 093°20'0 0.0
2017-Dec-25 16:30N 30°08' W 093°20'0 0.0
2017-Dec-25 16:00N 30°08' W 093°20'0 0.0
2017-Dec-25 15:30N 30°08' W 093°20'0 0.0
2017-Dec-25 15:00N 30°08' W 093°20'0 0.0
2017-Dec-25 14:30N 30°08' W 093°20'0 0.0
2017-Dec-25 14:00N 30°08' W 093°20'0 0.0
2017-Dec-25 13:30N 30°08' W 093°20'0 0.0
2017-Dec-25 13:00N 30°08' W 093°20'0 0.0
2017-Dec-25 12:30N 30°08' W 093°20'0 0.0
2017-Dec-25 12:00N 30°08' W 093°20'0 0.0
2017-Dec-25 11:30N 30°08' W 093°20'0 0.0
2017-Dec-25 11:00N 30°08' W 093°20'0 0.0
2017-Dec-25 10:30N 30°08' W 093°20'0 0.0
2017-Dec-25 10:00N 30°08' W 093°20'0 0.0
2017-Dec-25 09:30N 30°08' W 093°20'0 0.0
2017-Dec-25 09:00N 30°08' W 093°20'0 0.0
2017-Dec-25 08:30N 30°08' W 093°20'0 0.0
2017-Dec-25 08:00N 30°08' W 093°20'0 0.0
2017-Dec-25 07:30N 30°08' W 093°20'0 0.0
2017-Dec-25 07:00N 30°08' W 093°20'0 0.0
2017-Dec-25 06:30N 30°08' W 093°20'0 0.0
2017-Dec-25 06:00N 30°08' W 093°20'0 0.0
2017-Dec-25 05:30N 30°08' W 093°20'0 0.0
2017-Dec-25 05:00N 30°08' W 093°20'0 0.0
2017-Dec-25 04:30N 30°08' W 093°20'0 0.0
2017-Dec-25 04:00N 30°08' W 093°20'0 0.0
2017-Dec-25 03:30N 30°08' W 093°20'0 0.0
2017-Dec-25 03:00N 30°08' W 093°20'0 0.0
2017-Dec-25 02:30N 30°08' W 093°20'0 0.0
2017-Dec-25 02:00N 30°08' W 093°20'0 0.0
2017-Dec-25 01:30N 30°08' W 093°20'0 0.0
2017-Dec-25 01:00N 30°08' W 093°20'0 0.0
2017-Dec-25 00:30N 30°08' W 093°20'0 0.0
2017-Dec-25 00:00N 30°08' W 093°20'0 0.0
2017-Dec-24 23:30N 30°08' W 093°20'0 0.0
2017-Dec-24 23:00N 30°08' W 093°20'0 0.0
2017-Dec-24 22:30N 30°08' W 093°20'0 0.0
2017-Dec-24 22:00N 30°08' W 093°20'0 0.0
2017-Dec-24 21:30N 30°08' W 093°20'0 0.0
2017-Dec-24 21:00N 30°08' W 093°20'0 0.0
2017-Dec-24 20:30N 30°08' W 093°20'0 0.0
2017-Dec-24 20:00N 30°08' W 093°20'0 0.0
2017-Dec-24 19:30N 30°08' W 093°20'0 0.0
2017-Dec-24 19:00N 30°08' W 093°20'0 0.0
2017-Dec-24 18:30N 30°08' W 093°20'0 0.0
2017-Dec-24 18:00N 30°08' W 093°20'0 0.0
2017-Dec-24 17:30N 30°08' W 093°20'0 0.0
2017-Dec-24 17:00N 30°08' W 093°20'0 0.0
2017-Dec-24 16:30N 30°08' W 093°20'0 0.0
2017-Dec-24 16:00N 30°08' W 093°20'0 0.0
2017-Dec-24 15:30N 30°08' W 093°20'0 0.0
2017-Dec-24 15:00N 30°08' W 093°20'0 0.0
2017-Dec-24 14:30N 30°08' W 093°20'0 0.0
2017-Dec-24 14:00N 30°08' W 093°20'0 0.0
2017-Dec-24 13:30N 30°08' W 093°20'0 0.0
2017-Dec-24 13:00N 30°08' W 093°20'0 0.0
2017-Dec-24 12:30N 30°08' W 093°20'0 0.0
2017-Dec-24 12:00N 30°08' W 093°20'0 0.0
2017-Dec-24 11:30N 30°08' W 093°20'0 0.0
2017-Dec-24 11:00N 30°08' W 093°20'0 0.0
2017-Dec-24 10:30N 30°08' W 093°20'0 0.0
2017-Dec-24 10:00N 30°08' W 093°20'0 0.0
2017-Dec-24 09:30N 30°08' W 093°20'0 0.0
2017-Dec-24 09:00N 30°08' W 093°20'0 0.0
2017-Dec-24 08:30N 30°08' W 093°20'0 0.0
2017-Dec-24 08:00N 30°08' W 093°20'0 0.0
2017-Dec-24 07:30N 30°08' W 093°20'0 0.0
2017-Dec-24 07:00N 30°08' W 093°20'0 0.0
2017-Dec-24 06:30N 30°08' W 093°20'0 0.0
2017-Dec-24 06:00N 30°08' W 093°20'0 0.0
2017-Dec-24 05:30N 30°08' W 093°20'0 0.0
2017-Dec-24 05:00N 30°08' W 093°20'0 0.0
2017-Dec-24 04:30N 30°08' W 093°20'0 0.0
2017-Dec-24 04:00N 30°08' W 093°20'0 0.0
2017-Dec-24 03:30N 30°08' W 093°20'0 0.0
2017-Dec-24 03:00N 30°08' W 093°20'0 0.0
2017-Dec-24 02:30N 30°08' W 093°20'0 0.0
2017-Dec-24 02:00N 30°08' W 093°20'0 0.0
2017-Dec-24 01:30N 30°08' W 093°20'0 0.0
2017-Dec-24 01:00N 30°08' W 093°20'0 0.0
2017-Dec-24 00:30N 30°08' W 093°20'0 0.0
2017-Dec-24 00:00N 30°08' W 093°20'0 0.0
2017-Dec-23 23:30N 30°08' W 093°20'0 0.0
2017-Dec-23 23:00N 30°08' W 093°20'0 0.0
2017-Dec-23 22:30N 30°08' W 093°20'0 0.0
2017-Dec-23 22:00N 30°08' W 093°20'0 0.0
2017-Dec-23 21:30N 30°08' W 093°20'0 0.0
2017-Dec-23 21:00N 30°08' W 093°20'0 0.0
2017-Dec-23 20:30N 30°08' W 093°20'0 0.0
2017-Dec-23 20:00N 30°08' W 093°20'0 0.0
2017-Dec-23 19:30N 30°08' W 093°20'0 0.0
2017-Dec-23 19:00N 30°08' W 093°20'0 0.0
2017-Dec-23 18:30N 30°08' W 093°20'0 0.0
2017-Dec-23 18:00N 30°08' W 093°20'0 0.0
2017-Dec-23 17:30N 30°08' W 093°20'0 0.0
2017-Dec-23 17:00N 30°08' W 093°20'0 0.0
2017-Dec-23 16:30N 30°08' W 093°20'0 0.0
2017-Dec-23 16:00N 30°08' W 093°20'0 0.0
2017-Dec-23 15:30N 30°08' W 093°20'0 0.0
2017-Dec-23 15:00N 30°08' W 093°20'0 0.0
2017-Dec-23 14:30N 30°08' W 093°20'0 0.0
2017-Dec-23 14:00N 30°08' W 093°20'0 0.0
2017-Dec-23 13:30N 30°08' W 093°20'0 0.0
2017-Dec-23 13:00N 30°08' W 093°20'0 0.0
2017-Dec-23 12:30N 30°08' W 093°20'0 0.0
2017-Dec-23 12:00N 30°08' W 093°20'0 0.0
2017-Dec-23 11:30N 30°08' W 093°20'0 0.0
2017-Dec-23 11:00N 30°08' W 093°20'0 0.0
2017-Dec-23 10:30N 30°08' W 093°20'0 0.0
2017-Dec-23 10:00N 30°08' W 093°20'0 0.0
2017-Dec-23 09:30N 30°08' W 093°20'0 0.0
2017-Dec-23 09:00N 30°08' W 093°20'0 0.0
2017-Dec-23 08:30N 30°08' W 093°20'0 0.0
2017-Dec-23 08:00N 30°08' W 093°20'0 0.0
2017-Dec-23 07:30N 30°08' W 093°20'0 0.0
2017-Dec-23 07:00N 30°08' W 093°20'0 0.0
2017-Dec-23 06:30N 30°08' W 093°20'0 0.0
2017-Dec-23 06:00N 30°08' W 093°20'0 0.0
2017-Dec-23 05:30N 30°08' W 093°20'0 0.0
2017-Dec-23 05:00N 30°08' W 093°20'0 0.0
2017-Dec-23 04:30N 30°08' W 093°20'0 0.0
2017-Dec-23 04:00N 30°08' W 093°20'0 0.0
2017-Dec-23 03:30N 30°08' W 093°20'0 0.0
2017-Dec-23 03:00N 30°08' W 093°20'0 0.0
2017-Dec-23 02:30N 30°08' W 093°20'0 0.0
2017-Dec-23 02:00N 30°08' W 093°20'0 0.0
2017-Dec-23 01:30N 30°08' W 093°20'0 0.0
2017-Dec-23 01:00N 30°08' W 093°20'0 0.0
2017-Dec-23 00:30N 30°08' W 093°20'0 0.0
2017-Dec-23 00:00N 30°08' W 093°20'0 0.0
2017-Dec-22 23:30N 30°08' W 093°20'0 0.0
2017-Dec-22 23:00N 30°08' W 093°20'0 0.0
2017-Dec-22 22:30N 30°08' W 093°20'0 0.0
2017-Dec-22 22:00N 30°08' W 093°20'0 0.0
2017-Dec-22 21:30N 30°08' W 093°20'0 0.0
2017-Dec-22 21:00N 30°08' W 093°20'0 0.0
2017-Dec-22 20:30N 30°08' W 093°20'0 0.0
2017-Dec-22 20:00N 30°08' W 093°20'0 0.0
2017-Dec-22 19:30N 30°08' W 093°20'0 0.0
2017-Dec-22 19:00N 30°08' W 093°20'0 0.0
2017-Dec-22 18:30N 30°08' W 093°20'0 0.0
2017-Dec-22 18:00N 30°08' W 093°20'0 0.0
2017-Dec-22 17:30N 30°08' W 093°20'0 0.0
2017-Dec-22 17:00N 30°08' W 093°20'0 0.0
2017-Dec-22 16:30N 30°08' W 093°20'3 5.1
2017-Dec-22 16:00N 30°06' W 093°20'1 2.4
2017-Dec-22 15:30N 30°06' W 093°18'2 3.0
2017-Dec-22 15:00N 30°07' W 093°20'2 3.4
2017-Dec-22 14:30N 30°08' W 093°20'0 0.0
2017-Dec-22 14:00N 30°08' W 093°20'0 0.0
2017-Dec-22 13:30N 30°08' W 093°20'0 0.0
2017-Dec-22 13:00N 30°08' W 093°20'0 0.0
2017-Dec-22 12:30N 30°08' W 093°20'0 0.0
2017-Dec-22 12:00N 30°08' W 093°20'0 0.0
2017-Dec-22 11:30N 30°08' W 093°20'0 0.0
2017-Dec-22 11:00N 30°08' W 093°20'0 0.0
2017-Dec-22 10:30N 30°08' W 093°20'0 0.0
2017-Dec-22 10:00N 30°08' W 093°20'0 0.0
2017-Dec-22 09:30N 30°08' W 093°20'0 0.0
2017-Dec-22 09:00N 30°08' W 093°20'0 0.0
2017-Dec-22 08:30N 30°08' W 093°20'0 0.0
2017-Dec-22 08:00N 30°08' W 093°20'0 0.0
2017-Dec-22 07:30N 30°08' W 093°20'0 0.0
2017-Dec-22 07:00N 30°08' W 093°20'0 0.0
2017-Dec-22 06:30N 30°08' W 093°20'0 0.0
2017-Dec-22 06:00N 30°08' W 093°20'0 0.0
2017-Dec-22 05:30N 30°08' W 093°20'0 0.0
2017-Dec-22 05:00N 30°08' W 093°20'0 0.0
2017-Dec-22 04:30N 30°08' W 093°20'0 0.0
2017-Dec-22 04:00N 30°08' W 093°20'0 0.0
2017-Dec-22 03:30N 30°08' W 093°20'0 0.0
2017-Dec-22 03:00N 30°08' W 093°20'0 0.0
2017-Dec-22 02:30N 30°08' W 093°20'0 0.0
2017-Dec-22 02:00N 30°08' W 093°20'0 0.0
2017-Dec-22 01:30N 30°08' W 093°20'0 0.0
2017-Dec-22 01:00N 30°08' W 093°20'0 0.0
2017-Dec-22 00:30N 30°08' W 093°20'0 0.0
2017-Dec-22 00:00N 30°08' W 093°20'0 0.0
2017-Dec-21 23:30N 30°08' W 093°20'0 0.0
2017-Dec-21 23:00N 30°08' W 093°20'0 0.0
2017-Dec-21 22:30N 30°08' W 093°20'0 0.0
2017-Dec-21 22:00N 30°08' W 093°20'0 0.0
2017-Dec-21 21:30N 30°08' W 093°20'0 0.0
2017-Dec-21 21:00N 30°08' W 093°20'0 0.0
2017-Dec-21 20:30N 30°08' W 093°20'0 0.0
2017-Dec-21 20:00N 30°08' W 093°20'0 0.0
2017-Dec-21 19:30N 30°08' W 093°20'0 0.3
2017-Dec-21 19:00N 30°08' W 093°20'3 5.3
2017-Dec-21 18:30N 30°11' W 093°19'2 3.6
2017-Dec-21 18:00N 30°09' W 093°20'1 2.1
2017-Dec-21 17:30N 30°08' W 093°20'0 0.0
2017-Dec-21 17:00N 30°08' W 093°20'1 1.4
2017-Dec-21 16:30N 30°09' W 093°20'2 4.3
2017-Dec-21 16:00N 30°11' W 093°19'0 0.0
2017-Dec-21 15:30N 30°11' W 093°19'0 0.0
2017-Dec-21 15:00N 30°11' W 093°19'0 0.0
2017-Dec-21 14:30N 30°11' W 093°19'0 0.0
2017-Dec-21 13:59N 30°11' W 093°19'0 0.0
2017-Dec-21 13:29N 30°11' W 093°19'0 0.0
2017-Dec-21 12:58N 30°11' W 093°19'0 0.0
2017-Dec-21 12:30N 30°11' W 093°19'0 0.0
2017-Dec-21 12:00N 30°11' W 093°19'0 0.0
2017-Dec-21 11:30N 30°11' W 093°19'0 0.0
2017-Dec-21 10:59N 30°11' W 093°19'0 0.0
2017-Dec-21 10:25N 30°11' W 093°19'0 0.0
2017-Dec-21 09:59N 30°11' W 093°19'0 0.0
2017-Dec-21 09:21N 30°11' W 093°19'0 0.0
2017-Dec-21 08:57N 30°11' W 093°19'0 0.0
2017-Dec-21 08:27N 30°11' W 093°19'0 0.0
2017-Dec-21 08:00N 30°11' W 093°19'0 0.0
2017-Dec-21 07:30N 30°11' W 093°19'0 0.0
2017-Dec-21 07:00N 30°11' W 093°19'0 0.0
2017-Dec-21 06:29N 30°11' W 093°19'0 0.0
2017-Dec-21 06:00N 30°11' W 093°19'0 0.0
2017-Dec-21 05:30N 30°11' W 093°19'0 0.0
2017-Dec-21 05:00N 30°11' W 093°19'0 0.0
2017-Dec-21 04:30N 30°11' W 093°19'0 0.0
2017-Dec-21 04:00N 30°11' W 093°19'0 0.0
2017-Dec-21 03:30N 30°11' W 093°19'0 0.0
2017-Dec-21 03:00N 30°11' W 093°19'0 0.0
2017-Dec-21 02:30N 30°11' W 093°19'0 0.0
2017-Dec-21 02:00N 30°11' W 093°19'0 0.0
2017-Dec-21 01:30N 30°11' W 093°19'0 0.0
2017-Dec-21 01:00N 30°11' W 093°19'0 0.0
2017-Dec-21 00:30N 30°11' W 093°19'0 0.0
2017-Dec-21 00:00N 30°11' W 093°19'0 0.0
2017-Dec-20 23:30N 30°11' W 093°19'0 0.0
2017-Dec-20 23:00N 30°11' W 093°19'0 0.0
2017-Dec-20 22:30N 30°11' W 093°19'0 0.0
2017-Dec-20 22:00N 30°11' W 093°19'0 0.0
2017-Dec-20 21:30N 30°11' W 093°19'0 0.0
2017-Dec-20 21:00N 30°11' W 093°19'0 0.0
2017-Dec-20 20:30N 30°11' W 093°19'0 0.0
2017-Dec-20 20:00N 30°11' W 093°19'0 0.0
2017-Dec-20 19:30N 30°11' W 093°19'0 0.0
2017-Dec-20 19:00N 30°11' W 093°19'0 0.0
2017-Dec-20 18:30N 30°11' W 093°19'0 0.9
2017-Dec-20 18:00N 30°11' W 093°19'2 4.8
2017-Dec-20 17:30N 30°08' W 093°20'2 3.8
2017-Dec-20 17:00N 30°10' W 093°19'0 0.2
2017-Dec-20 16:30N 30°10' W 093°19'2 4.0
2017-Dec-20 16:00N 30°08' W 093°20'3 5.3
2017-Dec-20 15:30N 30°11' W 093°19'1 2.4
2017-Dec-20 15:00N 30°10' W 093°19'1 2.9
2017-Dec-20 14:30N 30°08' W 093°20'0 0.0
2017-Dec-20 14:00N 30°08' W 093°20'0 0.0
2017-Dec-20 13:30N 30°08' W 093°20'2 3.7
2017-Dec-20 13:00N 30°10' W 093°19'1 1.9
2017-Dec-20 12:30N 30°11' W 093°19'0 0.0
2017-Dec-20 12:00N 30°11' W 093°19'0 0.0
2017-Dec-20 11:30N 30°11' W 093°19'0 0.0
2017-Dec-20 11:00N 30°11' W 093°19'0 0.0
2017-Dec-20 10:30N 30°11' W 093°19'0 0.0
2017-Dec-20 10:00N 30°11' W 093°19'0 0.0
2017-Dec-20 09:30N 30°11' W 093°19'0 0.0
2017-Dec-20 09:00N 30°11' W 093°19'0 0.0
2017-Dec-20 08:30N 30°11' W 093°19'0 0.0
2017-Dec-20 08:00N 30°11' W 093°19'0 0.0
2017-Dec-20 07:30N 30°11' W 093°19'0 0.0
2017-Dec-20 07:00N 30°11' W 093°19'0 0.0
2017-Dec-20 06:30N 30°11' W 093°19'0 0.0
2017-Dec-20 06:00N 30°11' W 093°19'0 0.0
2017-Dec-20 05:30N 30°11' W 093°19'0 0.0
2017-Dec-20 05:00N 30°11' W 093°19'0 0.0
2017-Dec-20 04:30N 30°11' W 093°19'0 0.0
2017-Dec-20 04:00N 30°11' W 093°19'0 0.0
2017-Dec-20 03:30N 30°11' W 093°19'0 0.0
2017-Dec-20 03:00N 30°11' W 093°19'0 0.0
2017-Dec-20 02:30N 30°11' W 093°19'0 0.0
2017-Dec-20 02:00N 30°11' W 093°19'0 0.0
2017-Dec-20 01:30N 30°11' W 093°19'0 0.0
2017-Dec-20 01:00N 30°11' W 093°19'0 0.0
2017-Dec-20 00:30N 30°11' W 093°19'0 0.0
2017-Dec-20 00:00N 30°11' W 093°19'0 0.0
2017-Dec-19 23:30N 30°11' W 093°19'0 0.0
2017-Dec-19 23:00N 30°11' W 093°19'0 0.0
2017-Dec-19 22:30N 30°11' W 093°19'0 0.0
2017-Dec-19 22:00N 30°11' W 093°19'0 0.0
2017-Dec-19 21:30N 30°11' W 093°19'0 0.0
2017-Dec-19 21:00N 30°11' W 093°19'  

Dump ship's entire track history